createdAt,value
2022-10-14T00:00:28.585Z,8.50
2022-10-14T00:02:58.791Z,8.00
2022-10-14T00:05:29.799Z,8.00
2022-10-14T00:08:01.298Z,7.00
2022-10-14T00:10:32.165Z,7.00
2022-10-14T00:13:04.150Z,9.00
2022-10-14T00:15:40.059Z,8.00
2022-10-14T00:18:11.128Z,8.00
2022-10-14T00:20:41.371Z,8.00
2022-10-14T00:23:12.364Z,7.75
2022-10-14T00:25:42.500Z,6.25
2022-10-14T00:28:12.744Z,7.25
2022-10-14T00:30:43.246Z,6.75
2022-10-14T00:33:13.454Z,7.75
2022-10-14T00:35:44.179Z,7.25
2022-10-14T00:38:14.694Z,8.00
2022-10-14T00:40:45.141Z,7.25
2022-10-14T00:43:15.587Z,7.00
2022-10-14T00:45:46.500Z,6.75
2022-10-14T00:48:19.189Z,8.00
2022-10-14T00:50:52.861Z,6.00
2022-10-14T00:53:27.569Z,6.75
2022-10-14T00:55:57.780Z,4.00
2022-10-14T00:58:28.306Z,4.50
2022-10-14T01:00:58.580Z,3.25
2022-10-14T01:03:29.432Z,6.00
2022-10-14T01:06:06.507Z,6.00
2022-10-14T01:08:39.787Z,7.25
2022-10-14T01:11:13.349Z,7.00
2022-10-14T01:13:52.720Z,7.75
2022-10-14T01:16:42.829Z,9.75
2022-10-14T01:19:28.247Z,11.00
2022-10-14T01:22:07.547Z,8.00
2022-10-14T01:25:05.155Z,8.00
2022-10-14T01:27:44.124Z,6.25
2022-10-14T01:30:34.203Z,4.50
2022-10-14T01:33:13.912Z,7.50
2022-10-14T01:36:01.403Z,7.00
2022-10-14T01:38:43.616Z,7.75
2022-10-14T01:41:22.470Z,6.50
2022-10-14T01:43:55.653Z,4.00
2022-10-14T01:46:27.675Z,6.25
2022-10-14T01:49:07.232Z,7.00
2022-10-14T01:51:43.045Z,6.00
2022-10-14T01:54:21.677Z,6.50
2022-10-14T01:56:54.517Z,5.00
2022-10-14T01:59:26.413Z,7.00
2022-10-14T02:01:56.590Z,6.75
2022-10-14T02:04:26.883Z,6.75
2022-10-14T02:07:11.910Z,6.75
2022-10-14T02:10:10.105Z,8.25
2022-10-14T02:12:45.796Z,6.75
2022-10-14T02:15:31.638Z,7.00
2022-10-14T02:18:20.085Z,0.00
2022-10-14T02:21:13.377Z,4.00
2022-10-14T02:23:46.822Z,10.00
2022-10-14T02:26:25.502Z,9.50
2022-10-14T02:28:58.370Z,12.00
2022-10-14T02:31:29.820Z,9.00
2022-10-14T02:34:02.984Z,11.00
2022-10-14T02:36:54.389Z,7.25
2022-10-14T02:39:27.955Z,11.75
2022-10-14T02:42:19.284Z,12.00
2022-10-14T02:44:54.559Z,14.00
2022-10-14T02:47:25.801Z,13.00
2022-10-14T02:49:57.056Z,14.75
2022-10-14T02:52:27.297Z,13.00
2022-10-14T02:54:57.742Z,6.75
2022-10-14T02:57:28.020Z,8.00
2022-10-14T02:59:58.428Z,12.00
2022-10-14T03:02:28.862Z,9.00
2022-10-14T03:04:59.063Z,12.00
2022-10-14T03:07:29.330Z,7.00
2022-10-14T03:09:59.544Z,10.00
2022-10-14T03:12:50.460Z,12.00
2022-10-14T03:15:20.797Z,7.25
2022-10-14T03:17:51.733Z,11.75
2022-10-14T03:20:23.049Z,11.25
2022-10-14T03:22:53.248Z,7.50
2022-10-14T03:25:23.476Z,11.50
2022-10-14T03:27:54.190Z,9.00
2022-10-14T03:30:24.356Z,7.50
2022-10-14T03:32:58.715Z,8.00
2022-10-14T03:35:32.870Z,8.25
2022-10-14T03:38:06.274Z,9.00
2022-10-14T03:40:37.544Z,7.75
2022-10-14T03:43:11.260Z,7.75
2022-10-14T03:45:45.736Z,8.75
2022-10-14T03:48:16.487Z,9.00
2022-10-14T03:50:48.071Z,8.50
2022-10-14T03:53:21.624Z,9.25
2022-10-14T03:55:52.599Z,7.25
2022-10-14T03:58:24.482Z,8.25
2022-10-14T04:00:54.874Z,7.00
2022-10-14T04:03:25.778Z,0.00
2022-10-14T04:05:56.306Z,5.25
2022-10-14T04:08:28.316Z,7.25
2022-10-14T04:10:58.809Z,9.00
2022-10-14T04:13:56.740Z,7.00
2022-10-14T04:16:38.670Z,5.50
2022-10-14T04:19:14.191Z,8.25
2022-10-14T04:21:48.613Z,7.25
2022-10-14T04:24:19.557Z,8.00
2022-10-14T04:26:52.615Z,10.75
2022-10-14T04:29:23.306Z,9.75
2022-10-14T04:31:53.519Z,10.00
2022-10-14T04:34:24.184Z,10.25
2022-10-14T04:36:54.581Z,9.00
2022-10-14T04:39:25.038Z,10.00
2022-10-14T04:41:56.539Z,6.50
2022-10-14T04:44:27.774Z,12.25
2022-10-14T04:46:58.260Z,8.50
2022-10-14T04:49:28.771Z,11.00
2022-10-14T04:51:59.283Z,11.50
2022-10-14T04:54:29.923Z,8.75
2022-10-14T04:57:00.626Z,9.25
2022-10-14T04:59:31.414Z,9.50
2022-10-14T05:02:01.783Z,10.00
2022-10-14T05:04:32.741Z,9.50
2022-10-14T05:07:11.971Z,10.75
2022-10-14T05:09:51.204Z,9.50
2022-10-14T05:12:33.830Z,6.50
2022-10-14T05:15:08.152Z,9.75
2022-10-14T05:17:39.199Z,10.00
2022-10-14T05:20:09.711Z,9.75
2022-10-14T05:22:40.455Z,11.25
2022-10-14T05:25:10.699Z,11.00
2022-10-14T05:27:41.169Z,12.00
2022-10-14T05:30:12.318Z,10.00
2022-10-14T05:32:43.033Z,9.50
2022-10-14T05:35:13.986Z,8.00
2022-10-14T05:37:44.145Z,9.50
2022-10-14T05:40:14.596Z,8.75
2022-10-14T05:42:45.735Z,11.25
2022-10-14T05:45:16.410Z,10.00
2022-10-14T05:47:47.572Z,10.50
2022-10-14T05:50:18.031Z,10.00
2022-10-14T05:52:48.560Z,10.00
2022-10-14T05:55:18.923Z,6.50
2022-10-14T05:57:49.955Z,7.50
2022-10-14T06:00:24.833Z,9.50
2022-10-14T06:02:52.637Z,11.00
2022-10-14T06:05:23.085Z,9.00
2022-10-14T06:07:57.205Z,8.00
2022-10-14T06:10:28.513Z,8.50
2022-10-14T06:12:59.460Z,6.50
2022-10-14T06:15:29.916Z,5.25
2022-10-14T06:18:00.330Z,6.00
2022-10-14T06:20:31.562Z,9.50
2022-10-14T06:23:03.198Z,7.25
2022-10-14T06:25:36.560Z,10.00
2022-10-14T06:28:07.014Z,9.50
2022-10-14T06:30:37.466Z,9.00
2022-10-14T06:33:08.926Z,9.75
2022-10-14T06:35:39.763Z,7.00
2022-10-14T06:38:10.741Z,10.75
2022-10-14T06:40:41.883Z,10.25
2022-10-14T06:43:12.395Z,8.75
2022-10-14T06:45:44.388Z,10.50
2022-10-14T06:48:15.682Z,4.00
2022-10-14T06:50:46.077Z,7.00
2022-10-14T06:53:19.509Z,4.50
2022-10-14T06:56:04.218Z,5.50
2022-10-14T06:58:38.754Z,5.75
2022-10-14T07:01:12.869Z,5.50
2022-10-14T07:03:43.260Z,6.00
2022-10-14T07:06:13.658Z,6.25
2022-10-14T07:08:44.265Z,8.25
2022-10-14T07:11:15.465Z,6.50
2022-10-14T07:13:46.732Z,8.50
2022-10-14T07:16:17.099Z,9.00
2022-10-14T07:18:47.612Z,7.25
2022-10-14T07:21:20.219Z,8.50
2022-10-14T07:23:50.279Z,10.25
2022-10-14T07:26:20.557Z,8.00
2022-10-14T07:28:51.025Z,6.00
2022-10-14T07:31:21.465Z,6.00
2022-10-14T07:33:52.733Z,7.25
2022-10-14T07:36:24.043Z,8.75
2022-10-14T07:38:54.300Z,7.75
2022-10-14T07:41:25.907Z,8.00
2022-10-14T07:43:59.732Z,8.00
2022-10-14T07:46:30.434Z,7.00
2022-10-14T07:49:07.404Z,6.25
2022-10-14T07:51:38.575Z,7.50
2022-10-14T07:54:14.812Z,5.00
2022-10-14T07:56:46.096Z,5.00
2022-10-14T07:59:21.209Z,6.00
2022-10-14T08:01:53.478Z,8.00
2022-10-14T08:04:24.517Z,2.00
2022-10-14T08:06:55.162Z,4.80
2022-10-14T08:11:55.860Z,5.20
2022-10-14T08:14:27.229Z,4.60
2022-10-14T08:16:57.633Z,4.60
2022-10-14T08:19:28.270Z,4.00
2022-10-14T08:21:58.892Z,5.00
2022-10-14T08:24:29.189Z,5.00
2022-10-14T08:26:59.729Z,0.00
2022-10-14T08:29:30.231Z,4.80
2022-10-14T08:32:00.581Z,4.80
2022-10-14T08:34:30.837Z,5.00
2022-10-14T08:37:02.599Z,4.40
2022-10-14T08:39:33.818Z,5.60
2022-10-14T08:42:13.060Z,5.00
2022-10-14T08:44:52.056Z,4.80
2022-10-14T08:47:27.991Z,3.60
2022-10-14T08:50:04.877Z,3.20
2022-10-14T08:52:44.313Z,5.00
2022-10-14T08:55:38.415Z,2.00
2022-10-14T08:58:12.379Z,2.00
2022-10-14T09:00:46.324Z,2.20
2022-10-14T09:03:22.485Z,2.00
2022-10-14T09:05:59.744Z,2.40
2022-10-14T09:08:38.856Z,2.60
2022-10-14T09:11:11.950Z,2.60
2022-10-14T09:13:45.901Z,4.40
2022-10-14T09:16:28.825Z,2.00
2022-10-14T09:19:02.121Z,4.20
2022-10-14T09:21:52.963Z,2.60
2022-10-14T09:24:24.958Z,1.40
2022-10-14T09:27:07.449Z,1.00
2022-10-14T09:29:56.148Z,2.00
2022-10-14T09:32:37.963Z,2.20
2022-10-14T09:35:28.451Z,1.00
2022-10-14T09:38:00.359Z,1.00
2022-10-14T09:40:39.025Z,1.80
2022-10-14T09:43:19.854Z,2.00
2022-10-14T09:46:08.809Z,3.60
2022-10-14T09:48:45.636Z,3.20
2022-10-14T09:51:28.305Z,3.00
2022-10-14T09:54:03.312Z,3.00
2022-10-14T09:56:42.231Z,3.20
2022-10-14T09:59:23.048Z,3.40
2022-10-14T10:01:58.118Z,2.80
2022-10-14T10:04:34.388Z,2.80
2022-10-14T10:07:07.581Z,4.00
2022-10-14T10:09:38.091Z,3.40
2022-10-14T10:12:35.515Z,3.40
2022-10-14T10:15:08.368Z,3.80
2022-10-14T10:17:40.906Z,2.20
2022-10-14T10:20:24.311Z,3.00
2022-10-14T10:22:58.610Z,1.80
2022-10-14T10:25:29.152Z,3.00
2022-10-14T10:28:00.191Z,3.60
2022-10-14T10:30:39.345Z,3.80
2022-10-14T10:33:20.975Z,2.60
2022-10-14T10:36:12.408Z,2.00
2022-10-14T10:38:54.863Z,2.40
2022-10-14T10:41:58.681Z,2.00
2022-10-14T10:44:50.669Z,3.00
2022-10-14T10:47:35.805Z,3.80
2022-10-14T10:50:35.016Z,3.00
2022-10-14T10:53:26.251Z,3.60
2022-10-14T10:56:11.650Z,3.00
2022-10-14T10:59:11.011Z,3.00
2022-10-14T11:02:07.252Z,2.20
2022-10-14T11:04:52.652Z,3.00
2022-10-14T11:07:43.042Z,3.60
2022-10-14T11:10:28.567Z,3.00
2022-10-14T11:13:10.466Z,3.60
2022-10-14T11:16:17.608Z,4.20
2022-10-14T11:19:13.894Z,4.60
2022-10-14T11:22:03.262Z,4.00
2022-10-14T11:24:36.637Z,3.80
2022-10-14T11:27:27.247Z,3.00
2022-10-14T11:30:06.830Z,4.00
2022-10-14T11:33:15.096Z,4.00
2022-10-14T11:35:57.308Z,3.80
2022-10-14T11:38:46.429Z,3.80
2022-10-14T11:41:44.252Z,3.40
2022-10-14T11:44:20.451Z,3.40
2022-10-14T11:46:53.916Z,3.20
2022-10-14T11:49:48.467Z,3.80
2022-10-14T11:52:30.614Z,3.00
2022-10-14T11:55:09.728Z,2.80
2022-10-14T11:57:51.402Z,4.00
2022-10-14T12:00:24.649Z,2.60
2022-10-14T12:03:14.656Z,3.40
2022-10-14T12:05:50.949Z,4.00
2022-10-14T12:08:24.340Z,2.80
2022-10-14T12:11:13.549Z,2.80
2022-10-14T12:13:47.226Z,3.20
2022-10-14T12:16:20.150Z,2.00
2022-10-14T12:18:58.492Z,2.75
2022-10-14T12:21:53.854Z,2.20
2022-10-14T12:24:27.357Z,3.00
2022-10-14T12:27:00.886Z,1.80
2022-10-14T12:29:34.230Z,1.80
2022-10-14T12:32:07.579Z,3.00
2022-10-14T12:34:41.477Z,2.20
2022-10-14T12:37:33.534Z,3.00
2022-10-14T12:40:07.856Z,3.20
2022-10-14T12:42:44.484Z,4.00
2022-10-14T12:45:18.012Z,4.60
2022-10-14T12:47:50.359Z,3.40
2022-10-14T12:50:32.749Z,3.60
2022-10-14T12:53:06.631Z,3.40
2022-10-14T12:55:40.414Z,5.00
2022-10-14T12:58:18.944Z,3.20
2022-10-14T13:00:54.994Z,3.60
2022-10-14T13:03:28.681Z,3.00
2022-10-14T13:06:29.073Z,4.00
2022-10-14T13:09:18.133Z,3.40
2022-10-14T13:11:58.442Z,3.20
2022-10-14T13:14:31.870Z,2.00
2022-10-14T13:17:12.069Z,2.50
2022-10-14T13:19:45.286Z,0.00
2022-10-14T13:22:39.645Z,1.75
2022-10-14T13:25:23.207Z,3.00
2022-10-14T13:28:14.997Z,3.00
2022-10-14T13:30:54.337Z,2.00
2022-10-14T13:33:33.803Z,3.50
2022-10-14T13:36:06.972Z,3.25
2022-10-14T13:38:40.898Z,4.00
2022-10-14T13:41:31.853Z,2.00
2022-10-14T13:44:07.097Z,3.75
2022-10-14T13:46:43.483Z,2.00
2022-10-14T13:49:22.686Z,4.00
2022-10-14T13:51:58.760Z,5.00
2022-10-14T13:54:30.452Z,3.75
2022-10-14T13:57:42.778Z,3.00
2022-10-14T14:00:09.065Z,3.75
2022-10-14T14:02:23.756Z,6.25
2022-10-14T14:04:57.405Z,2.00
2022-10-14T14:10:08.478Z,3.50
2022-10-14T14:12:42.022Z,3.50
2022-10-14T14:15:18.090Z,3.00
2022-10-14T14:17:48.405Z,3.00
2022-10-14T14:20:22.297Z,3.00
2022-10-14T14:22:53.301Z,5.00
2022-10-14T14:25:38.163Z,4.00
2022-10-14T14:28:04.855Z,4.75
2022-10-14T14:30:37.712Z,4.00
2022-10-14T14:33:13.599Z,4.50
2022-10-14T14:35:59.031Z,4.00
2022-10-14T14:38:32.058Z,4.75
2022-10-14T14:41:23.556Z,3.50
2022-10-14T14:44:24.033Z,5.75
2022-10-14T14:46:34.693Z,4.75
2022-10-14T14:49:07.334Z,6.00
2022-10-14T14:51:40.818Z,6.00
2022-10-14T14:54:19.430Z,4.75
2022-10-14T14:56:58.875Z,4.75
2022-10-14T14:59:41.317Z,3.50
2022-10-14T15:02:18.917Z,5.25
2022-10-14T15:05:01.070Z,5.75
2022-10-14T15:07:32.529Z,6.50
2022-10-14T15:10:06.180Z,5.25
2022-10-14T15:12:42.123Z,8.50
2022-10-14T15:15:27.917Z,7.00
2022-10-14T15:18:22.448Z,6.00
2022-10-14T15:20:55.064Z,5.75
2022-10-14T15:23:44.378Z,7.25
2022-10-14T15:26:29.740Z,9.25
2022-10-14T15:32:04.124Z,5.00
2022-10-14T15:34:35.110Z,7.75
2022-10-14T15:37:05.936Z,7.00
2022-10-14T15:39:36.662Z,8.50
2022-10-14T15:42:10.046Z,11.25
2022-10-14T15:44:41.216Z,10.50
2022-10-14T15:47:13.496Z,9.00
2022-10-14T15:49:45.195Z,9.00
2022-10-14T15:52:22.943Z,11.00
2022-10-14T15:54:51.810Z,12.50
2022-10-14T15:57:23.041Z,12.00
2022-10-14T15:59:54.507Z,9.75
2022-10-14T16:02:28.106Z,12.00
2022-10-14T16:07:30.436Z,13.00
2022-10-14T16:10:00.794Z,12.25
2022-10-14T16:12:32.437Z,11.50
2022-10-14T16:17:34.705Z,12.50
2022-10-14T16:20:06.751Z,11.25
2022-10-14T16:22:37.050Z,13.00
2022-10-14T16:25:09.129Z,14.00
2022-10-14T16:27:39.516Z,17.00
2022-10-14T16:30:10.967Z,17.50
2022-10-14T16:32:41.790Z,15.00
2022-10-14T16:35:12.419Z,16.50
2022-10-14T16:37:42.837Z,19.00
2022-10-14T16:40:13.598Z,19.75
2022-10-14T16:42:44.033Z,19.50
2022-10-14T16:45:14.841Z,20.00
2022-10-14T16:47:45.115Z,20.00
2022-10-14T16:50:16.375Z,20.75
2022-10-14T16:52:47.397Z,15.25
2022-10-14T16:55:18.642Z,14.75
2022-10-14T16:57:49.700Z,17.25
2022-10-14T17:00:20.378Z,17.75
2022-10-14T17:02:51.712Z,17.00
2022-10-14T17:05:22.474Z,13.50
2022-10-14T17:07:53.431Z,16.75
2022-10-14T17:10:24.369Z,16.75
2022-10-14T17:12:55.311Z,18.75
2022-10-14T17:15:26.306Z,19.25
2022-10-14T17:17:57.963Z,17.00
2022-10-14T17:20:31.372Z,15.25
2022-10-14T17:23:06.528Z,18.50
2022-10-14T17:25:34.990Z,18.50
2022-10-14T17:28:05.445Z,19.75
2022-10-14T17:30:35.820Z,20.50
2022-10-14T17:33:06.548Z,22.50
2022-10-14T17:35:36.901Z,19.25
2022-10-14T17:38:07.418Z,20.75
2022-10-14T17:40:37.958Z,22.00
2022-10-14T17:43:08.815Z,18.50
2022-10-14T17:45:39.638Z,20.00
2022-10-14T17:48:10.008Z,21.00
2022-10-14T17:50:40.903Z,22.25
2022-10-14T17:53:11.419Z,20.00
2022-10-14T17:55:42.414Z,22.25
2022-10-14T17:58:12.858Z,22.25
2022-10-14T18:00:43.655Z,23.25
2022-10-14T18:03:14.945Z,19.75
2022-10-14T18:05:48.781Z,21.25
2022-10-14T18:08:18.513Z,20.75
2022-10-14T18:10:52.078Z,23.25
2022-10-14T18:13:22.442Z,20.50
2022-10-14T18:15:53.471Z,16.75
2022-10-14T18:18:31.559Z,26.00
2022-10-14T18:21:04.297Z,25.25
2022-10-14T18:23:37.500Z,23.50
2022-10-14T18:26:20.748Z,23.75
2022-10-14T18:29:00.563Z,24.75
2022-10-14T18:31:47.287Z,24.25
2022-10-14T18:34:50.285Z,23.75
2022-10-14T18:38:00.454Z,26.00
2022-10-14T18:43:58.140Z,19.25
2022-10-14T18:46:38.794Z,23.00
2022-10-14T18:49:19.832Z,22.50
2022-10-14T18:52:34.279Z,24.00
2022-10-14T18:58:48.863Z,22.50
2022-10-14T19:01:21.023Z,18.00
2022-10-14T19:04:04.996Z,16.00
2022-10-14T19:06:40.792Z,23.50
2022-10-14T19:09:13.182Z,23.00
2022-10-14T19:11:53.968Z,23.00
2022-10-14T19:14:27.065Z,23.00
2022-10-14T19:17:08.798Z,19.25
2022-10-14T19:19:41.690Z,16.00
2022-10-14T19:22:12.571Z,23.00
2022-10-14T19:24:44.246Z,20.25
2022-10-14T19:27:23.583Z,19.50
2022-10-14T19:29:55.017Z,20.00
2022-10-14T19:32:31.586Z,18.50
2022-10-14T19:35:14.499Z,22.00
2022-10-14T19:37:47.315Z,19.50
2022-10-14T19:40:23.643Z,19.00
2022-10-14T19:42:58.829Z,19.50
2022-10-14T19:45:33.697Z,17.00
2022-10-14T19:48:07.835Z,16.50
2022-10-14T19:51:07.170Z,16.75
2022-10-14T19:53:45.882Z,18.75
2022-10-14T19:56:36.341Z,17.75
2022-10-14T19:59:19.233Z,20.25
2022-10-14T20:01:50.029Z,0.00
2022-10-14T20:04:22.752Z,22.25
2022-10-14T20:06:52.537Z,13.25
2022-10-14T20:09:22.785Z,20.75
2022-10-14T20:11:53.871Z,19.00
2022-10-14T20:14:25.562Z,16.50
2022-10-14T20:16:57.641Z,20.00
2022-10-14T20:19:28.479Z,17.25
2022-10-14T20:21:58.714Z,19.25
2022-10-14T20:24:32.208Z,16.50
2022-10-14T20:27:04.548Z,16.75
2022-10-14T20:29:36.608Z,17.75
2022-10-14T20:32:06.880Z,14.25
2022-10-14T20:34:37.842Z,16.25
2022-10-14T20:37:08.555Z,16.75
2022-10-14T20:39:38.978Z,13.25
2022-10-14T20:42:09.194Z,13.25
2022-10-14T20:44:41.029Z,15.75
2022-10-14T20:47:11.604Z,18.00
2022-10-14T20:49:43.109Z,14.75
2022-10-14T20:52:15.188Z,17.25
2022-10-14T20:54:45.463Z,18.25
2022-10-14T20:57:16.111Z,17.25
2022-10-14T20:59:46.565Z,18.25
2022-10-14T21:02:19.604Z,17.50
2022-10-14T21:04:51.765Z,17.75
2022-10-14T21:07:24.953Z,17.25
2022-10-14T21:09:56.288Z,16.50
2022-10-14T21:12:27.430Z,15.25
2022-10-14T21:14:59.087Z,20.00
2022-10-14T21:17:29.297Z,17.00
2022-10-14T21:19:59.679Z,16.50
2022-10-14T21:22:30.825Z,18.00
2022-10-14T21:25:05.945Z,18.25
2022-10-14T21:27:36.554Z,21.75
2022-10-14T21:30:07.818Z,18.50
2022-10-14T21:32:38.792Z,19.25
2022-10-14T21:35:10.522Z,23.25
2022-10-14T21:37:41.389Z,23.25
2022-10-14T21:40:11.908Z,22.75
2022-10-14T21:42:43.407Z,24.00
2022-10-14T21:45:13.754Z,27.00
2022-10-14T21:47:44.093Z,26.75
2022-10-14T21:50:14.713Z,22.50
2022-10-14T21:52:45.206Z,25.25
2022-10-14T21:55:16.031Z,25.50
2022-10-14T21:57:47.044Z,25.50
2022-10-14T22:00:18.121Z,20.75
2022-10-14T22:02:54.557Z,25.50
2022-10-14T22:05:24.789Z,22.00
2022-10-14T22:07:55.072Z,19.25
2022-10-14T22:10:25.962Z,19.50
2022-10-14T22:12:57.625Z,9.75
2022-10-14T22:15:28.074Z,11.50
2022-10-14T22:17:58.499Z,17.75
2022-10-14T22:20:28.763Z,19.25
2022-10-14T22:22:58.930Z,17.50
2022-10-14T22:25:29.263Z,17.75
2022-10-14T22:27:59.486Z,15.00
2022-10-14T22:30:30.234Z,14.75
2022-10-14T22:33:00.489Z,3.25
2022-10-14T22:35:30.706Z,19.00
2022-10-14T22:38:01.028Z,17.75
2022-10-14T22:40:33.019Z,17.00
2022-10-14T22:43:03.580Z,18.00
2022-10-14T22:45:33.878Z,19.25
2022-10-14T22:48:04.156Z,20.00
2022-10-14T22:50:36.084Z,17.75
2022-10-14T22:53:06.415Z,17.25
2022-10-14T22:55:37.277Z,17.75
2022-10-14T22:58:07.475Z,19.50
2022-10-14T23:03:09.281Z,22.25
2022-10-14T23:05:40.604Z,19.75
2022-10-14T23:08:10.932Z,21.25
2022-10-14T23:10:45.274Z,22.25
2022-10-14T23:13:15.942Z,20.00
2022-10-14T23:15:55.795Z,18.50
2022-10-14T23:18:27.930Z,16.00
2022-10-14T23:20:58.180Z,17.75
2022-10-14T23:23:29.118Z,16.25
2022-10-14T23:25:59.320Z,17.00
2022-10-14T23:28:29.565Z,12.25
2022-10-14T23:30:59.908Z,16.00
2022-10-14T23:33:32.048Z,15.50
2022-10-14T23:36:07.601Z,15.25
2022-10-14T23:38:39.072Z,13.75
2022-10-14T23:41:11.911Z,10.50
2022-10-14T23:43:43.407Z,14.00
2022-10-14T23:46:14.231Z,10.75
2022-10-14T23:48:51.418Z,1.00
2022-10-14T23:51:17.040Z,13.00
2022-10-14T23:53:47.239Z,12.00
2022-10-14T23:56:17.608Z,12.00
2022-10-14T23:58:48.782Z,10.00
